sensor_id;sensor_type;location;lat;lon;timestamp;temperature;humidity
49679;DHT22;35570;48.218;16.326;2023-02-04T00:02:19;6.80;93.80
49679;DHT22;35570;48.218;16.326;2023-02-04T00:04:44;6.80;93.70
49679;DHT22;35570;48.218;16.326;2023-02-04T00:07:10;6.80;93.80
49679;DHT22;35570;48.218;16.326;2023-02-04T00:09:36;6.80;93.70
49679;DHT22;35570;48.218;16.326;2023-02-04T00:12:01;6.90;93.40
49679;DHT22;35570;48.218;16.326;2023-02-04T00:14:27;6.80;93.70
49679;DHT22;35570;48.218;16.326;2023-02-04T00:16:52;6.90;93.20
49679;DHT22;35570;48.218;16.326;2023-02-04T00:19:18;6.80;93.30
49679;DHT22;35570;48.218;16.326;2023-02-04T00:21:44;6.90;93.30
49679;DHT22;35570;48.218;16.326;2023-02-04T00:24:09;6.90;93.60
49679;DHT22;35570;48.218;16.326;2023-02-04T00:26:35;6.90;93.30
49679;DHT22;35570;48.218;16.326;2023-02-04T00:29:01;6.90;93.10
49679;DHT22;35570;48.218;16.326;2023-02-04T00:31:27;6.90;93.00
49679;DHT22;35570;48.218;16.326;2023-02-04T00:33:52;6.90;92.80
49679;DHT22;35570;48.218;16.326;2023-02-04T00:36:18;6.90;92.70
49679;DHT22;35570;48.218;16.326;2023-02-04T00:38:43;6.90;92.60
49679;DHT22;35570;48.218;16.326;2023-02-04T00:41:09;6.90;92.80
49679;DHT22;35570;48.218;16.326;2023-02-04T00:43:36;6.90;91.70
49679;DHT22;35570;48.218;16.326;2023-02-04T00:46:01;6.90;91.80
49679;DHT22;35570;48.218;16.326;2023-02-04T00:48:27;6.90;91.20
49679;DHT22;35570;48.218;16.326;2023-02-04T00:50:53;6.90;91.60
49679;DHT22;35570;48.218;16.326;2023-02-04T00:53:19;6.90;91.40
49679;DHT22;35570;48.218;16.326;2023-02-04T00:55:44;6.90;90.50
49679;DHT22;35570;48.218;16.326;2023-02-04T00:58:10;6.90;89.70
49679;DHT22;35570;48.218;16.326;2023-02-04T01:00:36;6.90;90.40
49679;DHT22;35570;48.218;16.326;2023-02-04T01:03:01;6.90;90.10
49679;DHT22;35570;48.218;16.326;2023-02-04T01:05:27;6.90;90.20
49679;DHT22;35570;48.218;16.326;2023-02-04T01:07:53;6.90;90.40
49679;DHT22;35570;48.218;16.326;2023-02-04T01:10:18;6.90;89.10
49679;DHT22;35570;48.218;16.326;2023-02-04T01:12:44;7.00;87.70
49679;DHT22;35570;48.218;16.326;2023-02-04T01:15:10;7.00;87.30
49679;DHT22;35570;48.218;16.326;2023-02-04T01:17:36;7.00;85.80
49679;DHT22;35570;48.218;16.326;2023-02-04T01:20:01;7.00;86.40
49679;DHT22;35570;48.218;16.326;2023-02-04T01:22:27;7.00;85.80
49679;DHT22;35570;48.218;16.326;2023-02-04T01:24:53;7.00;84.90
49679;DHT22;35570;48.218;16.326;2023-02-04T01:27:18;7.00;85.80
49679;DHT22;35570;48.218;16.326;2023-02-04T01:29:44;7.00;86.40
49679;DHT22;35570;48.218;16.326;2023-02-04T01:32:10;7.00;86.40
49679;DHT22;35570;48.218;16.326;2023-02-04T01:34:35;7.00;86.90
49679;DHT22;35570;48.218;16.326;2023-02-04T01:37:01;7.00;87.40
49679;DHT22;35570;48.218;16.326;2023-02-04T01:39:26;7.00;87.10
49679;DHT22;35570;48.218;16.326;2023-02-04T01:41:52;7.00;87.10
49679;DHT22;35570;48.218;16.326;2023-02-04T01:44:18;7.00;87.60
49679;DHT22;35570;48.218;16.326;2023-02-04T01:46:43;7.00;88.20
49679;DHT22;35570;48.218;16.326;2023-02-04T01:49:10;7.00;88.90
49679;DHT22;35570;48.218;16.326;2023-02-04T01:51:36;7.00;89.40
49679;DHT22;35570;48.218;16.326;2023-02-04T01:54:02;7.00;89.90
49679;DHT22;35570;48.218;16.326;2023-02-04T01:56:29;7.00;89.90
49679;DHT22;35570;48.218;16.326;2023-02-04T01:58:56;7.00;90.00
49679;DHT22;35570;48.218;16.326;2023-02-04T02:01:52;7.00;90.10
49679;DHT22;35570;48.218;16.326;2023-02-04T02:04:31;7.00;90.40
49679;DHT22;35570;48.218;16.326;2023-02-04T02:07:00;7.00;90.30
49679;DHT22;35570;48.218;16.326;2023-02-04T02:09:28;7.00;89.70
49679;DHT22;35570;48.218;16.326;2023-02-04T02:11:55;7.00;88.60
49679;DHT22;35570;48.218;16.326;2023-02-04T02:14:21;7.00;89.00
49679;DHT22;35570;48.218;16.326;2023-02-04T02:16:47;7.00;88.00
49679;DHT22;35570;48.218;16.326;2023-02-04T02:19:16;7.00;87.70
49679;DHT22;35570;48.218;16.326;2023-02-04T02:22:04;7.00;87.20
49679;DHT22;35570;48.218;16.326;2023-02-04T02:24:33;7.00;86.50
49679;DHT22;35570;48.218;16.326;2023-02-04T02:27:09;7.00;86.80
49679;DHT22;35570;48.218;16.326;2023-02-04T02:29:37;7.00;86.10
49679;DHT22;35570;48.218;16.326;2023-02-04T02:32:04;7.00;86.20
49679;DHT22;35570;48.218;16.326;2023-02-04T02:34:30;7.00;84.60
49679;DHT22;35570;48.218;16.326;2023-02-04T02:36:58;7.10;84.10
49679;DHT22;35570;48.218;16.326;2023-02-04T02:39:24;7.00;84.50
49679;DHT22;35570;48.218;16.326;2023-02-04T02:41:50;7.10;84.30
49679;DHT22;35570;48.218;16.326;2023-02-04T02:44:17;7.00;83.20
49679;DHT22;35570;48.218;16.326;2023-02-04T02:46:44;7.00;83.10
49679;DHT22;35570;48.218;16.326;2023-02-04T02:49:17;7.10;82.70
49679;DHT22;35570;48.218;16.326;2023-02-04T02:51:44;7.10;82.50
49679;DHT22;35570;48.218;16.326;2023-02-04T02:54:26;7.10;81.90
49679;DHT22;35570;48.218;16.326;2023-02-04T02:56:53;7.10;82.30
49679;DHT22;35570;48.218;16.326;2023-02-04T02:59:19;7.10;81.60
49679;DHT22;35570;48.218;16.326;2023-02-04T03:01:47;7.10;81.70
49679;DHT22;35570;48.218;16.326;2023-02-04T03:04:14;7.10;80.90
49679;DHT22;35570;48.218;16.326;2023-02-04T03:06:41;7.10;81.00
49679;DHT22;35570;48.218;16.326;2023-02-04T03:09:07;7.10;81.50
49679;DHT22;35570;48.218;16.326;2023-02-04T03:11:32;7.10;81.10
49679;DHT22;35570;48.218;16.326;2023-02-04T03:13:59;7.10;81.60
49679;DHT22;35570;48.218;16.326;2023-02-04T03:16:29;7.10;81.10
49679;DHT22;35570;48.218;16.326;2023-02-04T03:19:01;7.10;81.10
49679;DHT22;35570;48.218;16.326;2023-02-04T03:21:27;7.10;81.10
49679;DHT22;35570;48.218;16.326;2023-02-04T03:23:53;7.10;80.60
49679;DHT22;35570;48.218;16.326;2023-02-04T03:26:24;7.10;80.60
49679;DHT22;35570;48.218;16.326;2023-02-04T03:28:52;7.20;80.50
49679;DHT22;35570;48.218;16.326;2023-02-04T03:31:18;7.10;81.10
49679;DHT22;35570;48.218;16.326;2023-02-04T03:33:43;7.20;80.70
49679;DHT22;35570;48.218;16.326;2023-02-04T03:36:09;7.10;81.00
49679;DHT22;35570;48.218;16.326;2023-02-04T03:38:35;7.10;81.40
49679;DHT22;35570;48.218;16.326;2023-02-04T03:41:01;7.10;81.30
49679;DHT22;35570;48.218;16.326;2023-02-04T03:43:26;7.10;82.20
49679;DHT22;35570;48.218;16.326;2023-02-04T03:45:52;7.10;82.30
49679;DHT22;35570;48.218;16.326;2023-02-04T03:48:18;7.10;82.20
49679;DHT22;35570;48.218;16.326;2023-02-04T03:50:44;7.10;81.70
49679;DHT22;35570;48.218;16.326;2023-02-04T03:53:10;7.10;81.40
49679;DHT22;35570;48.218;16.326;2023-02-04T03:55:35;7.10;81.10
49679;DHT22;35570;48.218;16.326;2023-02-04T03:58:02;7.10;80.90
49679;DHT22;35570;48.218;16.326;2023-02-04T04:00:28;7.10;81.40
49679;DHT22;35570;48.218;16.326;2023-02-04T04:02:54;7.10;82.30
49679;DHT22;35570;48.218;16.326;2023-02-04T04:05:19;7.10;82.70
49679;DHT22;35570;48.218;16.326;2023-02-04T04:07:45;7.10;83.40
49679;DHT22;35570;48.218;16.326;2023-02-04T04:10:11;7.10;84.30
49679;DHT22;35570;48.218;16.326;2023-02-04T04:12:37;7.10;85.10
49679;DHT22;35570;48.218;16.326;2023-02-04T04:15:03;7.10;85.80
49679;DHT22;35570;48.218;16.326;2023-02-04T04:17:29;7.10;86.70
49679;DHT22;35570;48.218;16.326;2023-02-04T04:19:55;7.10;87.70
49679;DHT22;35570;48.218;16.326;2023-02-04T04:22:20;7.10;88.60
49679;DHT22;35570;48.218;16.326;2023-02-04T04:24:46;7.00;89.40
49679;DHT22;35570;48.218;16.326;2023-02-04T04:27:12;7.00;90.10
49679;DHT22;35570;48.218;16.326;2023-02-04T04:29:37;7.00;90.50
49679;DHT22;35570;48.218;16.326;2023-02-04T04:32:03;6.90;90.80
49679;DHT22;35570;48.218;16.326;2023-02-04T04:34:29;6.90;91.10
49679;DHT22;35570;48.218;16.326;2023-02-04T04:36:55;6.90;91.30
49679;DHT22;35570;48.218;16.326;2023-02-04T04:39:21;6.90;91.60
49679;DHT22;35570;48.218;16.326;2023-02-04T04:41:47;6.80;91.80
49679;DHT22;35570;48.218;16.326;2023-02-04T04:44:12;6.80;92.10
49679;DHT22;35570;48.218;16.326;2023-02-04T04:46:38;6.80;92.30
49679;DHT22;35570;48.218;16.326;2023-02-04T04:49:05;6.80;92.30
49679;DHT22;35570;48.218;16.326;2023-02-04T04:51:31;6.70;92.50
49679;DHT22;35570;48.218;16.326;2023-02-04T04:53:57;6.70;92.50
49679;DHT22;35570;48.218;16.326;2023-02-04T04:56:24;6.70;92.60
49679;DHT22;35570;48.218;16.326;2023-02-04T04:58:50;6.70;92.60
49679;DHT22;35570;48.218;16.326;2023-02-04T05:01:15;6.60;92.70
49679;DHT22;35570;48.218;16.326;2023-02-04T05:03:41;6.60;92.80
49679;DHT22;35570;48.218;16.326;2023-02-04T05:06:07;6.60;92.70
49679;DHT22;35570;48.218;16.326;2023-02-04T05:08:34;6.60;92.40
49679;DHT22;35570;48.218;16.326;2023-02-04T05:11:01;6.60;91.70
49679;DHT22;35570;48.218;16.326;2023-02-04T05:13:27;6.50;91.10
49679;DHT22;35570;48.218;16.326;2023-02-04T05:15:52;6.50;90.50
49679;DHT22;35570;48.218;16.326;2023-02-04T05:18:18;6.50;90.00
49679;DHT22;35570;48.218;16.326;2023-02-04T05:20:44;6.50;88.90
49679;DHT22;35570;48.218;16.326;2023-02-04T05:23:09;6.40;88.40
49679;DHT22;35570;48.218;16.326;2023-02-04T05:25:35;6.40;88.20
49679;DHT22;35570;48.218;16.326;2023-02-04T05:28:00;6.40;88.20
49679;DHT22;35570;48.218;16.326;2023-02-04T05:30:26;6.40;87.60
49679;DHT22;35570;48.218;16.326;2023-02-04T05:32:52;6.40;87.80
49679;DHT22;35570;48.218;16.326;2023-02-04T05:35:18;6.30;86.90
49679;DHT22;35570;48.218;16.326;2023-02-04T05:37:43;6.30;86.60
49679;DHT22;35570;48.218;16.326;2023-02-04T05:40:09;6.30;86.90
49679;DHT22;35570;48.218;16.326;2023-02-04T05:42:35;6.30;85.60
49679;DHT22;35570;48.218;16.326;2023-02-04T05:45:01;6.30;84.60
49679;DHT22;35570;48.218;16.326;2023-02-04T05:47:26;6.20;84.70
49679;DHT22;35570;48.218;16.326;2023-02-04T05:49:52;6.20;84.30
49679;DHT22;35570;48.218;16.326;2023-02-04T05:52:18;6.20;82.80
49679;DHT22;35570;48.218;16.326;2023-02-04T05:54:43;6.20;82.80
49679;DHT22;35570;48.218;16.326;2023-02-04T05:57:09;6.20;82.90
49679;DHT22;35570;48.218;16.326;2023-02-04T05:59:35;6.20;83.40
49679;DHT22;35570;48.218;16.326;2023-02-04T06:02:00;6.20;83.20
49679;DHT22;35570;48.218;16.326;2023-02-04T06:04:26;6.20;82.00
49679;DHT22;35570;48.218;16.326;2023-02-04T06:06:51;6.10;81.80
49679;DHT22;35570;48.218;16.326;2023-02-04T06:09:17;6.10;81.60
49679;DHT22;35570;48.218;16.326;2023-02-04T06:11:43;6.10;81.60
49679;DHT22;35570;48.218;16.326;2023-02-04T06:14:08;6.10;81.90
49679;DHT22;35570;48.218;16.326;2023-02-04T06:16:35;6.10;81.80
49679;DHT22;35570;48.218;16.326;2023-02-04T06:19:01;6.10;81.80
49679;DHT22;35570;48.218;16.326;2023-02-04T06:21:27;6.10;81.60
49679;DHT22;35570;48.218;16.326;2023-02-04T06:23:52;6.10;81.50
49679;DHT22;35570;48.218;16.326;2023-02-04T06:26:18;6.00;81.10
49679;DHT22;35570;48.218;16.326;2023-02-04T06:28:44;6.10;81.20
49679;DHT22;35570;48.218;16.326;2023-02-04T06:31:09;6.10;80.80
49679;DHT22;35570;48.218;16.326;2023-02-04T06:33:36;6.10;80.70
49679;DHT22;35570;48.218;16.326;2023-02-04T06:36:03;6.10;80.60
49679;DHT22;35570;48.218;16.326;2023-02-04T06:38:29;6.10;80.90
49679;DHT22;35570;48.218;16.326;2023-02-04T06:40:55;6.10;81.20
49679;DHT22;35570;48.218;16.326;2023-02-04T06:43:20;6.00;80.50
49679;DHT22;35570;48.218;16.326;2023-02-04T06:45:46;6.00;80.50
49679;DHT22;35570;48.218;16.326;2023-02-04T06:48:12;6.00;80.10
49679;DHT22;35570;48.218;16.326;2023-02-04T06:50:38;6.00;80.20
49679;DHT22;35570;48.218;16.326;2023-02-04T06:53:04;6.00;80.00
49679;DHT22;35570;48.218;16.326;2023-02-04T06:55:29;6.00;79.40
49679;DHT22;35570;48.218;16.326;2023-02-04T06:57:55;6.00;79.70
49679;DHT22;35570;48.218;16.326;2023-02-04T07:00:21;6.00;79.30
49679;DHT22;35570;48.218;16.326;2023-02-04T07:02:46;6.00;78.90
49679;DHT22;35570;48.218;16.326;2023-02-04T07:05:12;6.00;78.10
49679;DHT22;35570;48.218;16.326;2023-02-04T07:07:38;6.00;78.40
49679;DHT22;35570;48.218;16.326;2023-02-04T07:10:03;6.00;78.70
49679;DHT22;35570;48.218;16.326;2023-02-04T07:12:29;5.90;78.60
49679;DHT22;35570;48.218;16.326;2023-02-04T07:14:55;6.00;78.40
49679;DHT22;35570;48.218;16.326;2023-02-04T07:17:22;6.00;78.30
49679;DHT22;35570;48.218;16.326;2023-02-04T07:19:48;5.90;78.50
49679;DHT22;35570;48.218;16.326;2023-02-04T07:22:13;5.90;78.40
49679;DHT22;35570;48.218;16.326;2023-02-04T07:24:39;5.90;78.30
49679;DHT22;35570;48.218;16.326;2023-02-04T07:27:05;6.00;78.40
49679;DHT22;35570;48.218;16.326;2023-02-04T07:29:31;6.00;78.70
49679;DHT22;35570;48.218;16.326;2023-02-04T07:31:56;6.00;78.30
49679;DHT22;35570;48.218;16.326;2023-02-04T07:34:22;6.00;78.60
49679;DHT22;35570;48.218;16.326;2023-02-04T07:36:48;6.00;78.50
49679;DHT22;35570;48.218;16.326;2023-02-04T07:39:13;6.10;77.90
49679;DHT22;35570;48.218;16.326;2023-02-04T07:41:40;6.10;77.10
49679;DHT22;35570;48.218;16.326;2023-02-04T07:44:05;6.20;76.50
49679;DHT22;35570;48.218;16.326;2023-02-04T07:46:31;6.20;76.60
49679;DHT22;35570;48.218;16.326;2023-02-04T07:48:57;6.30;76.10
49679;DHT22;35570;48.218;16.326;2023-02-04T07:51:22;6.30;75.20
49679;DHT22;35570;48.218;16.326;2023-02-04T07:53:48;6.40;74.40
49679;DHT22;35570;48.218;16.326;2023-02-04T07:56:14;6.40;74.10
49679;DHT22;35570;48.218;16.326;2023-02-04T07:58:39;6.40;73.90
49679;DHT22;35570;48.218;16.326;2023-02-04T08:01:05;6.40;74.10
49679;DHT22;35570;48.218;16.326;2023-02-04T08:03:30;6.40;74.40
49679;DHT22;35570;48.218;16.326;2023-02-04T08:05:56;6.40;74.80
49679;DHT22;35570;48.218;16.326;2023-02-04T08:08:22;6.30;74.90
49679;DHT22;35570;48.218;16.326;2023-02-04T08:10:47;6.30;75.20
49679;DHT22;35570;48.218;16.326;2023-02-04T08:13:13;6.30;75.40
49679;DHT22;35570;48.218;16.326;2023-02-04T08:15:39;6.40;78.00
49679;DHT22;35570;48.218;16.326;2023-02-04T08:18:05;6.40;77.70
49679;DHT22;35570;48.218;16.326;2023-02-04T08:20:31;6.40;77.50
49679;DHT22;35570;48.218;16.326;2023-02-04T08:22:57;6.40;77.10
49679;DHT22;35570;48.218;16.326;2023-02-04T08:25:22;6.50;76.60
49679;DHT22;35570;48.218;16.326;2023-02-04T08:27:48;6.60;76.50
49679;DHT22;35570;48.218;16.326;2023-02-04T08:30:14;6.90;75.20
49679;DHT22;35570;48.218;16.326;2023-02-04T08:32:40;7.80;72.60
49679;DHT22;35570;48.218;16.326;2023-02-04T08:35:06;8.60;69.40
49679;DHT22;35570;48.218;16.326;2023-02-04T08:37:32;9.60;67.40
49679;DHT22;35570;48.218;16.326;2023-02-04T08:39:58;10.40;64.70
49679;DHT22;35570;48.218;16.326;2023-02-04T08:42:24;11.30;62.60
49679;DHT22;35570;48.218;16.326;2023-02-04T08:44:49;12.00;60.70
49679;DHT22;35570;48.218;16.326;2023-02-04T08:47:15;12.80;60.50
49679;DHT22;35570;48.218;16.326;2023-02-04T08:49:41;13.30;58.40
49679;DHT22;35570;48.218;16.326;2023-02-04T08:52:07;13.60;57.80
49679;DHT22;35570;48.218;16.326;2023-02-04T08:54:33;14.00;57.50
49679;DHT22;35570;48.218;16.326;2023-02-04T08:57:00;15.10;56.90
49679;DHT22;35570;48.218;16.326;2023-02-04T08:59:26;16.20;55.90
49679;DHT22;35570;48.218;16.326;2023-02-04T09:01:52;17.30;54.70
49679;DHT22;35570;48.218;16.326;2023-02-04T09:06:45;19.10;52.20
49679;DHT22;35570;48.218;16.326;2023-02-04T09:09:11;19.90;52.10
49679;DHT22;35570;48.218;16.326;2023-02-04T09:11:37;20.60;51.00
49679;DHT22;35570;48.218;16.326;2023-02-04T09:14:03;20.60;51.20
49679;DHT22;35570;48.218;16.326;2023-02-04T09:16:29;20.20;51.30
49679;DHT22;35570;48.218;16.326;2023-02-04T09:18:54;20.20;51.50
49679;DHT22;35570;48.218;16.326;2023-02-04T09:21:20;19.50;52.10
49679;DHT22;35570;48.218;16.326;2023-02-04T09:23:46;18.50;53.60
49679;DHT22;35570;48.218;16.326;2023-02-04T09:26:13;17.40;55.40
49679;DHT22;35570;48.218;16.326;2023-02-04T09:28:39;16.60;56.90
49679;DHT22;35570;48.218;16.326;2023-02-04T09:31:05;15.80;58.00
49679;DHT22;35570;48.218;16.326;2023-02-04T09:33:32;15.10;59.50
49679;DHT22;35570;48.218;16.326;2023-02-04T09:35:58;14.40;61.00
49679;DHT22;35570;48.218;16.326;2023-02-04T09:38:23;13.80;60.60
49679;DHT22;35570;48.218;16.326;2023-02-04T09:40:53;13.30;61.30
49679;DHT22;35570;48.218;16.326;2023-02-04T09:43:23;12.90;61.30
49679;DHT22;35570;48.218;16.326;2023-02-04T09:45:52;12.60;61.30
49679;DHT22;35570;48.218;16.326;2023-02-04T09:48:18;12.30;62.30
49679;DHT22;35570;48.218;16.326;2023-02-04T09:50:46;12.10;61.90
49679;DHT22;35570;48.218;16.326;2023-02-04T09:53:14;11.90;62.30
49679;DHT22;35570;48.218;16.326;2023-02-04T09:55:43;11.80;62.70
49679;DHT22;35570;48.218;16.326;2023-02-04T09:58:15;11.60;62.20
49679;DHT22;35570;48.218;16.326;2023-02-04T10:00:58;11.50;62.40
49679;DHT22;35570;48.218;16.326;2023-02-04T10:03:24;11.40;61.90
49679;DHT22;35570;48.218;16.326;2023-02-04T10:05:51;11.30;62.00
49679;DHT22;35570;48.218;16.326;2023-02-04T10:08:27;11.20;61.80
49679;DHT22;35570;48.218;16.326;2023-02-04T10:10:53;11.20;61.30
49679;DHT22;35570;48.218;16.326;2023-02-04T10:13:23;11.10;61.30
49679;DHT22;35570;48.218;16.326;2023-02-04T10:15:53;10.90;61.30
49679;DHT22;35570;48.218;16.326;2023-02-04T10:18:24;10.90;61.40
49679;DHT22;35570;48.218;16.326;2023-02-04T10:24:01;10.80;61.10
49679;DHT22;35570;48.218;16.326;2023-02-04T10:26:29;10.80;60.50
49679;DHT22;35570;48.218;16.326;2023-02-04T10:31:36;11.40;59.80
49679;DHT22;35570;48.218;16.326;2023-02-04T10:34:23;11.60;59.10
49679;DHT22;35570;48.218;16.326;2023-02-04T10:36:56;12.40;58.20
49679;DHT22;35570;48.218;16.326;2023-02-04T10:39:26;13.30;77.80
49679;DHT22;35570;48.218;16.326;2023-02-04T10:41:57;14.10;72.40
49679;DHT22;35570;48.218;16.326;2023-02-04T10:44:31;14.70;65.20
49679;DHT22;35570;48.218;16.326;2023-02-04T10:47:03;15.30;62.90
49679;DHT22;35570;48.218;16.326;2023-02-04T10:49:29;15.90;63.80
49679;DHT22;35570;48.218;16.326;2023-02-04T10:51:55;16.70;59.40
49679;DHT22;35570;48.218;16.326;2023-02-04T10:54:23;17.40;55.90
49679;DHT22;35570;48.218;16.326;2023-02-04T10:59:26;18.50;50.10
49679;DHT22;35570;48.218;16.326;2023-02-04T11:01:54;18.70;48.00
49679;DHT22;35570;48.218;16.326;2023-02-04T11:04:20;18.30;46.90
49679;DHT22;35570;48.218;16.326;2023-02-04T11:06:46;17.80;46.80
49679;DHT22;35570;48.218;16.326;2023-02-04T11:09:13;17.10;46.80
49679;DHT22;35570;48.218;16.326;2023-02-04T11:11:47;16.50;47.20
49679;DHT22;35570;48.218;16.326;2023-02-04T11:14:26;15.70;47.80
49679;DHT22;35570;48.218;16.326;2023-02-04T11:16:53;15.10;48.00
49679;DHT22;35570;48.218;16.326;2023-02-04T11:19:38;14.60;48.90
49679;DHT22;35570;48.218;16.326;2023-02-04T11:22:20;14.10;49.90
49679;DHT22;35570;48.218;16.326;2023-02-04T11:24:47;13.80;53.50
49679;DHT22;35570;48.218;16.326;2023-02-04T11:27:24;13.70;58.80
49679;DHT22;35570;48.218;16.326;2023-02-04T11:29:51;13.90;58.10
49679;DHT22;35570;48.218;16.326;2023-02-04T11:32:36;14.20;57.60
49679;DHT22;35570;48.218;16.326;2023-02-04T11:35:20;14.90;57.20
49679;DHT22;35570;48.218;16.326;2023-02-04T11:37:46;15.80;56.50
49679;DHT22;35570;48.218;16.326;2023-02-04T11:40:25;16.50;55.80
49679;DHT22;35570;48.218;16.326;2023-02-04T11:43:11;17.30;55.20
49679;DHT22;35570;48.218;16.326;2023-02-04T11:45:38;18.10;54.60
49679;DHT22;35570;48.218;16.326;2023-02-04T11:48:30;18.50;53.40
49679;DHT22;35570;48.218;16.326;2023-02-04T11:50:57;18.80;52.90
49679;DHT22;35570;48.218;16.326;2023-02-04T11:53:31;18.90;52.80
49679;DHT22;35570;48.218;16.326;2023-02-04T11:55:57;18.50;52.40
49679;DHT22;35570;48.218;16.326;2023-02-04T11:58:24;17.90;52.20
49679;DHT22;35570;48.218;16.326;2023-02-04T12:00:51;17.30;53.40
49679;DHT22;35570;48.218;16.326;2023-02-04T12:03:23;16.70;53.30
49679;DHT22;35570;48.218;16.326;2023-02-04T12:05:50;16.30;53.60
49679;DHT22;35570;48.218;16.326;2023-02-04T12:08:33;15.80;54.10
49679;DHT22;35570;48.218;16.326;2023-02-04T12:13:28;15.20;54.60
49679;DHT22;35570;48.218;16.326;2023-02-04T12:16:02;14.90;54.40
49679;DHT22;35570;48.218;16.326;2023-02-04T12:18:28;14.80;54.60
49679;DHT22;35570;48.218;16.326;2023-02-04T12:20:55;14.60;61.00
49679;DHT22;35570;48.218;16.326;2023-02-04T12:23:22;14.60;69.10
49679;DHT22;35570;48.218;16.326;2023-02-04T12:25:48;14.70;75.10
49679;DHT22;35570;48.218;16.326;2023-02-04T12:28:14;14.70;72.70
49679;DHT22;35570;48.218;16.326;2023-02-04T12:30:39;14.60;70.30
49679;DHT22;35570;48.218;16.326;2023-02-04T12:33:05;14.50;74.50
49679;DHT22;35570;48.218;16.326;2023-02-04T12:35:32;14.50;75.50
49679;DHT22;35570;48.218;16.326;2023-02-04T12:37:58;14.30;75.00
49679;DHT22;35570;48.218;16.326;2023-02-04T12:40:24;14.10;72.70
49679;DHT22;35570;48.218;16.326;2023-02-04T12:42:50;13.80;71.40
49679;DHT22;35570;48.218;16.326;2023-02-04T12:45:16;13.60;69.40
49679;DHT22;35570;48.218;16.326;2023-02-04T12:47:42;13.40;66.80
49679;DHT22;35570;48.218;16.326;2023-02-04T12:50:10;13.60;64.70
49679;DHT22;35570;48.218;16.326;2023-02-04T12:52:36;13.90;63.90
49679;DHT22;35570;48.218;16.326;2023-02-04T12:55:04;14.40;63.00
49679;DHT22;35570;48.218;16.326;2023-02-04T12:57:32;15.00;65.20
49679;DHT22;35570;48.218;16.326;2023-02-04T12:59:58;15.50;63.10
49679;DHT22;35570;48.218;16.326;2023-02-04T13:02:26;16.10;61.30
49679;DHT22;35570;48.218;16.326;2023-02-04T13:04:52;16.50;60.20
49679;DHT22;35570;48.218;16.326;2023-02-04T13:07:18;16.90;59.20
49679;DHT22;35570;48.218;16.326;2023-02-04T13:09:43;17.20;58.00
49679;DHT22;35570;48.218;16.326;2023-02-04T13:12:10;17.20;57.40
49679;DHT22;35570;48.218;16.326;2023-02-04T13:14:38;17.30;56.20
49679;DHT22;35570;48.218;16.326;2023-02-04T13:17:04;17.20;59.00
49679;DHT22;35570;48.218;16.326;2023-02-04T13:19:30;16.90;57.80
49679;DHT22;35570;48.218;16.326;2023-02-04T13:21:57;16.60;57.00
49679;DHT22;35570;48.218;16.326;2023-02-04T13:24:23;16.20;57.30
49679;DHT22;35570;48.218;16.326;2023-02-04T13:26:48;15.90;56.60
49679;DHT22;35570;48.218;16.326;2023-02-04T13:29:14;15.60;56.60
49679;DHT22;35570;48.218;16.326;2023-02-04T13:31:40;15.30;56.80
49679;DHT22;35570;48.218;16.326;2023-02-04T13:34:06;15.00;56.80
49679;DHT22;35570;48.218;16.326;2023-02-04T13:36:31;14.70;56.50
49679;DHT22;35570;48.218;16.326;2023-02-04T13:38:57;14.40;56.30
49679;DHT22;35570;48.218;16.326;2023-02-04T13:41:25;14.10;56.00
49679;DHT22;35570;48.218;16.326;2023-02-04T13:43:51;13.80;56.10
49679;DHT22;35570;48.218;16.326;2023-02-04T13:46:17;13.60;56.40
49679;DHT22;35570;48.218;16.326;2023-02-04T13:48:42;13.50;56.30
49679;DHT22;35570;48.218;16.326;2023-02-04T13:51:08;13.40;56.40
49679;DHT22;35570;48.218;16.326;2023-02-04T13:53:34;13.30;56.40
49679;DHT22;35570;48.218;16.326;2023-02-04T13:55:59;13.20;56.10
49679;DHT22;35570;48.218;16.326;2023-02-04T13:58:26;13.00;56.30
49679;DHT22;35570;48.218;16.326;2023-02-04T14:00:52;12.80;56.30
49679;DHT22;35570;48.218;16.326;2023-02-04T14:03:22;12.70;56.70
49679;DHT22;35570;48.218;16.326;2023-02-04T14:05:49;12.60;63.20
49679;DHT22;35570;48.218;16.326;2023-02-04T14:08:15;12.50;61.00
49679;DHT22;35570;48.218;16.326;2023-02-04T14:10:40;12.40;60.20
49679;DHT22;35570;48.218;16.326;2023-02-04T14:13:06;12.30;60.40
49679;DHT22;35570;48.218;16.326;2023-02-04T14:15:31;12.20;59.50
49679;DHT22;35570;48.218;16.326;2023-02-04T14:17:59;12.10;59.40
49679;DHT22;35570;48.218;16.326;2023-02-04T14:20:25;11.90;59.20
49679;DHT22;35570;48.218;16.326;2023-02-04T14:22:51;11.80;59.00
49679;DHT22;35570;48.218;16.326;2023-02-04T14:25:17;11.80;64.30
49679;DHT22;35570;48.218;16.326;2023-02-04T14:27:42;11.70;66.70
49679;DHT22;35570;48.218;16.326;2023-02-04T14:30:20;11.60;66.00
49679;DHT22;35570;48.218;16.326;2023-02-04T14:32:46;11.50;65.90
49679;DHT22;35570;48.218;16.326;2023-02-04T14:35:12;11.40;65.50
49679;DHT22;35570;48.218;16.326;2023-02-04T14:37:38;11.30;64.80
49679;DHT22;35570;48.218;16.326;2023-02-04T14:40:04;11.30;64.40
49679;DHT22;35570;48.218;16.326;2023-02-04T14:42:30;11.10;63.50
49679;DHT22;35570;48.218;16.326;2023-02-04T14:44:56;11.00;63.20
49679;DHT22;35570;48.218;16.326;2023-02-04T14:47:22;10.90;63.10
49679;DHT22;35570;48.218;16.326;2023-02-04T14:49:48;10.80;62.80
49679;DHT22;35570;48.218;16.326;2023-02-04T14:52:13;10.70;62.70
49679;DHT22;35570;48.218;16.326;2023-02-04T14:54:39;10.50;62.20
49679;DHT22;35570;48.218;16.326;2023-02-04T14:57:05;10.50;62.40
49679;DHT22;35570;48.218;16.326;2023-02-04T14:59:36;10.40;61.70
49679;DHT22;35570;48.218;16.326;2023-02-04T15:02:02;10.30;61.90
49679;DHT22;35570;48.218;16.326;2023-02-04T15:04:28;10.20;61.90
49679;DHT22;35570;48.218;16.326;2023-02-04T15:06:54;10.10;62.00
49679;DHT22;35570;48.218;16.326;2023-02-04T15:09:22;10.00;61.50
49679;DHT22;35570;48.218;16.326;2023-02-04T15:11:47;9.90;61.80
49679;DHT22;35570;48.218;16.326;2023-02-04T15:14:13;9.80;61.70
49679;DHT22;35570;48.218;16.326;2023-02-04T15:16:39;9.70;61.80
49679;DHT22;35570;48.218;16.326;2023-02-04T15:19:06;9.60;61.80
49679;DHT22;35570;48.218;16.326;2023-02-04T15:21:32;9.50;61.70
49679;DHT22;35570;48.218;16.326;2023-02-04T15:23:57;9.40;61.90
49679;DHT22;35570;48.218;16.326;2023-02-04T15:26:23;9.40;61.60
49679;DHT22;35570;48.218;16.326;2023-02-04T15:28:49;9.30;62.00
49679;DHT22;35570;48.218;16.326;2023-02-04T15:31:15;9.30;61.90
49679;DHT22;35570;48.218;16.326;2023-02-04T15:33:41;9.20;62.70
49679;DHT22;35570;48.218;16.326;2023-02-04T15:36:07;9.20;62.40
49679;DHT22;35570;48.218;16.326;2023-02-04T15:38:33;9.10;62.40